Time;durP1;ratioP1;P1;durP2;ratioP2;P2;SDS_P1;SDS_P2;PMS_P1;PMS_P2;Temp;Humidity;BMP_temperature;BMP_pressure;BME280_temperature;BME280_humidity;BME280_pressure;Samples;Min_cycle;Max_cycle;Signal;HPM_P1;HPM_P2
2022/11/20 00:01:22;;;;;;;10.40;4.97;;;;;;;0.23;63.89;100965.27;1795730;78;21603;-61
2022/11/20 00:03:48;;;;;;;14.70;5.28;;;;;;;0.19;63.87;100963.22;1794969;78;21046;-60
2022/11/20 00:06:17;;;;;;;11.30;5.72;;;;;;;0.18;63.96;100973.16;1802834;78;21040;-60
2022/11/20 00:08:44;;;;;;;11.88;4.78;;;;;;;0.16;64.00;100973.20;1794531;78;21027;-60
2022/11/20 00:11:13;;;;;;;15.90;6.10;;;;;;;0.16;64.09;100978.38;1796226;78;21063;-60
2022/11/20 00:13:40;;;;;;;14.10;5.05;;;;;;;0.16;64.04;100982.25;1794605;78;21374;-60
2022/11/20 00:16:09;;;;;;;11.22;5.15;;;;;;;0.17;64.09;100983.97;1794793;79;21015;-60
2022/11/20 00:18:37;;;;;;;10.65;4.85;;;;;;;0.21;64.12;100974.83;1789176;79;21028;-60
2022/11/20 00:21:07;;;;;;;13.00;5.45;;;;;;;0.22;64.05;100976.50;1792452;79;21090;-60
2022/11/20 00:23:34;;;;;;;11.15;5.37;;;;;;;0.24;63.97;100965.69;1802571;78;21019;-61
2022/11/20 00:26:07;;;;;;;11.35;5.25;;;;;;;0.22;63.91;100976.50;1789211;78;21240;-61
2022/11/20 00:28:34;;;;;;;11.08;5.67;;;;;;;0.21;63.89;100980.00;1737206;81;21039;-60
2022/11/20 00:31:11;;;;;;;9.95;4.72;;;;;;;0.20;63.79;100980.88;1784809;79;21106;-61
2022/11/20 00:33:37;;;;;;;15.28;6.50;;;;;;;0.16;63.71;100986.14;1786854;79;21711;-60
2022/11/20 00:36:07;;;;;;;13.50;5.00;;;;;;;0.12;63.64;101001.36;1791789;79;21587;-61
2022/11/20 00:38:33;;;;;;;12.53;5.97;;;;;;;0.08;63.63;100998.43;1794322;79;22212;-60
2022/11/20 00:41:03;;;;;;;10.45;4.75;;;;;;;0.04;63.67;101005.88;1788717;79;21027;-60
2022/11/20 00:43:29;;;;;;;11.18;5.20;;;;;;;0.00;63.63;100999.11;1797982;79;21632;-61
2022/11/20 00:46:08;;;;;;;11.30;5.97;;;;;;;-0.08;63.64;100996.70;1798045;79;21540;-60
2022/11/20 00:48:34;;;;;;;10.25;4.25;;;;;;;-0.08;63.69;100998.45;1787250;79;21046;-60
2022/11/20 00:51:03;;;;;;;10.85;5.65;;;;;;;-0.13;63.56;100993.39;1794132;77;21047;-61
2022/11/20 00:53:30;;;;;;;11.68;5.05;;;;;;;-0.21;63.60;100992.73;1803947;79;21512;-61
2022/11/20 00:56:03;;;;;;;10.60;4.97;;;;;;;-0.25;63.62;100999.73;1789314;79;22301;-60
2022/11/20 00:58:32;;;;;;;10.88;5.58;;;;;;;-0.28;63.78;100992.50;1787278;79;21032;-61
2022/11/20 01:01:12;;;;;;;9.03;4.90;;;;;;;-0.30;63.77;100999.42;1803372;79;21442;-61
2022/11/20 01:03:43;;;;;;;12.07;4.65;;;;;;;-0.33;63.98;100996.48;1791576;79;21154;-60
2022/11/20 01:06:24;;;;;;;13.75;6.55;;;;;;;-0.30;64.21;100978.73;1797656;79;21034;-61
2022/11/20 01:08:53;;;;;;;12.47;5.65;;;;;;;-0.25;64.14;100979.48;1791851;79;21155;-60
2022/11/20 01:11:22;;;;;;;13.30;5.90;;;;;;;-0.26;63.83;100978.62;1793071;79;21553;-60
2022/11/20 01:13:50;;;;;;;10.82;4.92;;;;;;;-0.25;63.78;100979.03;1786590;79;21086;-60
2022/11/20 01:16:20;;;;;;;13.03;5.83;;;;;;;-0.23;63.80;100986.30;1786924;79;22144;-60
2022/11/20 01:18:49;;;;;;;12.47;5.15;;;;;;;-0.20;63.71;100978.92;1778617;79;20988;-61
2022/11/20 01:21:21;;;;;;;15.50;6.10;;;;;;;-0.20;63.48;100987.98;1781663;79;21447;-60
2022/11/20 01:23:48;;;;;;;10.32;4.97;;;;;;;-0.22;63.55;100988.02;1781851;79;21083;-60
2022/11/20 01:26:17;;;;;;;12.55;5.58;;;;;;;-0.20;63.57;100982.35;1785405;79;21031;-60
2022/11/20 01:28:45;;;;;;;10.23;5.30;;;;;;;-0.16;63.65;100988.29;1780186;79;21179;-60
2022/11/20 01:31:23;;;;;;;9.43;4.85;;;;;;;-0.10;63.66;100979.51;1784379;79;21023;-61
2022/11/20 01:33:53;;;;;;;14.55;6.70;;;;;;;-0.05;63.42;100975.06;1781709;79;21114;-60
2022/11/20 01:36:21;;;;;;;13.53;6.87;;;;;;;-0.09;63.30;100973.00;1776352;79;21602;-60
2022/11/20 01:38:47;;;;;;;11.15;5.58;;;;;;;-0.09;63.16;100970.88;1786388;79;21031;-60
2022/11/20 01:43:20;;;;;;;13.55;6.87;;;;;;;-0.07;63.29;100975.55;1787471;79;21237;-61
2022/11/20 01:43:43;;;;;;;12.18;5.85;;;;;;;-0.03;63.22;100986.24;1785438;79;21050;-61
2022/11/20 01:46:18;;;;;;;14.07;6.80;;;;;;;-0.02;63.17;100990.51;1788562;79;21056;-61
2022/11/20 01:49:04;;;;;;;11.75;6.10;;;;;;;-0.02;63.17;100984.04;1786105;79;21067;-60
2022/11/20 01:51:47;;;;;;;11.28;5.33;;;;;;;0.01;63.13;100993.48;1780575;79;21102;-61
2022/11/20 01:54:22;;;;;;;14.23;6.62;;;;;;;0.02;63.11;101000.33;1776615;79;21256;-61
2022/11/20 01:56:49;;;;;;;12.45;6.00;;;;;;;0.06;63.13;101004.09;1778929;79;21063;-61
2022/11/20 01:59:18;;;;;;;12.07;6.22;;;;;;;0.09;63.09;101013.08;1786834;79;21516;-61
2022/11/20 02:01:44;;;;;;;14.85;6.90;;;;;;;0.11;63.07;101010.00;1780136;79;21052;-60
2022/11/20 02:04:11;;;;;;;14.68;6.45;;;;;;;0.13;62.91;101019.86;1785000;79;21118;-60
2022/11/20 02:06:44;;;;;;;16.55;7.28;;;;;;;0.10;62.63;101025.14;1751693;81;21028;-61
2022/11/20 02:09:11;;;;;;;10.80;5.22;;;;;;;0.10;62.73;101023.84;1787405;79;21023;-60
2022/11/20 02:11:39;;;;;;;11.93;6.28;;;;;;;0.10;62.94;101023.84;1780328;79;21036;-60
2022/11/20 02:14:06;;;;;;;11.55;5.30;;;;;;;0.14;63.04;101026.74;1783010;79;21604;-60
2022/11/20 02:16:39;;;;;;;13.53;6.58;;;;;;;0.16;63.06;101023.66;1790971;79;21028;-60
2022/11/20 02:19:09;;;;;;;11.75;4.95;;;;;;;0.16;62.99;101015.90;1782817;79;21068;-60
2022/11/20 02:22:02;;;;;;;9.20;5.03;;;;;;;0.16;62.97;101024.95;1788682;79;21054;-60
2022/11/20 02:24:29;;;;;;;15.15;6.75;;;;;;;0.20;63.17;101023.13;1794612;79;21098;-60
2022/11/20 02:27:12;;;;;;;10.98;5.15;;;;;;;0.20;62.89;101024.42;1797550;78;21087;-60
2022/11/20 02:29:59;;;;;;;10.48;4.20;;;;;;;0.16;62.65;101034.02;1795542;79;21566;-60
2022/11/20 02:32:35;;;;;;;12.20;6.10;;;;;;;0.15;62.92;101034.92;1785594;79;21549;-60
2022/11/20 02:35:23;;;;;;;14.00;6.05;;;;;;;0.13;62.84;101035.38;1774098;79;20996;-60
2022/11/20 02:37:53;;;;;;;13.32;6.45;;;;;;;0.12;62.86;101025.10;1793241;79;21524;-61
2022/11/20 02:40:21;;;;;;;11.80;5.95;;;;;;;0.13;62.88;101013.84;1797219;79;21062;-60
2022/11/20 02:42:50;;;;;;;11.80;5.33;;;;;;;0.14;62.83;101017.69;1795618;79;21527;-61
2022/11/20 02:45:16;;;;;;;13.60;6.60;;;;;;;0.16;62.99;101026.25;1791915;79;21140;-61
2022/11/20 02:47:44;;;;;;;10.38;5.08;;;;;;;0.21;63.02;101035.65;1795408;79;21087;-60
2022/11/20 02:50:11;;;;;;;11.20;6.03;;;;;;;0.21;62.82;101028.73;1793055;79;21082;-60
2022/11/20 02:52:38;;;;;;;13.22;5.55;;;;;;;0.22;62.88;101020.51;1791940;79;21028;-61
2022/11/20 02:55:07;;;;;;;10.53;5.25;;;;;;;0.24;62.81;101026.52;1797535;79;21145;-60
2022/11/20 02:57:33;;;;;;;13.28;5.97;;;;;;;0.23;62.78;101028.69;1791257;79;21248;-61
2022/11/20 03:00:00;;;;;;;12.07;4.95;;;;;;;0.23;62.78;101027.39;1785538;79;21027;-60
2022/11/20 03:02:31;;;;;;;12.60;5.62;;;;;;;0.23;62.73;101024.34;1787871;79;21027;-60
2022/11/20 03:04:58;;;;;;;15.30;6.87;;;;;;;0.21;62.68;101037.78;1795507;79;21036;-60
2022/11/20 03:07:24;;;;;;;12.15;5.65;;;;;;;0.20;62.54;101045.12;1730347;81;21052;-60
2022/11/20 03:09:51;;;;;;;11.45;5.72;;;;;;;0.16;62.69;101042.23;1786492;79;21309;-60
2022/11/20 03:12:18;;;;;;;14.73;6.28;;;;;;;0.18;62.76;101040.03;1797804;78;21028;-60
2022/11/20 03:14:44;;;;;;;15.80;8.00;;;;;;;0.19;62.83;101046.05;1783108;78;21030;-60
2022/11/20 03:17:11;;;;;;;14.33;6.30;;;;;;;0.23;62.83;101040.33;1783455;79;21075;-60
2022/11/20 03:19:38;;;;;;;14.00;6.55;;;;;;;0.22;62.80;101039.50;1782178;79;21064;-60
2022/11/20 03:22:05;;;;;;;13.70;5.80;;;;;;;0.22;62.81;101043.80;1772736;79;21245;-61
2022/11/20 03:24:31;;;;;;;13.10;6.22;;;;;;;0.17;62.77;101051.71;1781380;79;21043;-60
2022/11/20 03:26:58;;;;;;;16.30;6.75;;;;;;;0.14;62.85;101050.48;1776007;79;21055;-60
2022/11/20 03:29:25;;;;;;;10.28;6.10;;;;;;;0.11;62.96;101050.11;1783202;79;21093;-60
2022/11/20 03:31:52;;;;;;;16.45;7.10;;;;;;;0.11;63.01;101051.86;1785591;79;21032;-60
2022/11/20 03:34:19;;;;;;;11.90;5.08;;;;;;;0.13;63.13;101051.37;1783895;79;21228;-60
2022/11/20 03:36:45;;;;;;;11.88;6.42;;;;;;;0.15;63.27;101054.34;1790242;79;21011;-60
2022/11/20 03:39:12;;;;;;;14.70;6.03;;;;;;;0.16;63.26;101054.72;1791926;79;21043;-61
2022/11/20 03:41:40;;;;;;;13.30;7.30;;;;;;;0.17;63.14;101066.78;1780361;79;21098;-60
2022/11/20 03:44:08;;;;;;;11.90;6.00;;;;;;;0.12;63.07;101075.56;1787855;79;21149;-61
2022/11/20 03:46:35;;;;;;;12.73;6.50;;;;;;;0.07;63.11;101061.44;1784036;79;21104;-60
2022/11/20 03:49:04;;;;;;;16.00;5.67;;;;;;;0.06;63.41;101063.61;1782106;79;21110;-61
2022/11/20 03:51:33;;;;;;;15.58;6.37;;;;;;;0.10;63.52;101055.32;1781730;79;21885;-60
2022/11/20 03:54:06;;;;;;;15.58;5.42;;;;;;;0.10;63.50;101044.55;1781316;79;21083;-60
2022/11/20 03:56:36;;;;;;;17.00;6.33;;;;;;;0.11;63.38;101047.98;1784281;79;21027;-61
2022/11/20 03:59:02;;;;;;;13.18;5.58;;;;;;;0.12;63.44;101050.53;1787009;79;21587;-60
2022/11/20 04:01:32;;;;;;;12.50;6.35;;;;;;;0.14;63.53;101044.86;1785778;79;20992;-61
2022/11/20 04:03:59;;;;;;;12.23;6.60;;;;;;;0.17;63.41;101039.61;1777362;79;21011;-60
2022/11/20 04:06:28;;;;;;;14.33;7.15;;;;;;;0.22;63.45;101039.92;1777793;79;21018;-60
2022/11/20 04:08:56;;;;;;;14.03;6.65;;;;;;;0.33;63.19;101039.19;1783364;79;21042;-61
2022/11/20 04:11:27;;;;;;;13.80;7.50;;;;;;;0.36;63.16;101035.23;1779583;79;21027;-60
2022/11/20 04:13:59;;;;;;;13.35;6.20;;;;;;;0.36;63.02;101040.41;1786211;79;21103;-60
2022/11/20 04:16:26;;;;;;;12.07;6.95;;;;;;;0.29;63.23;101041.47;1792079;79;21043;-61
2022/11/20 04:18:54;;;;;;;22.05;9.00;;;;;;;0.35;63.27;101036.11;1797112;79;21000;-60
2022/11/20 04:21:23;;;;;;;12.82;6.58;;;;;;;0.41;63.14;101026.05;1791615;79;21114;-61
2022/11/20 04:23:51;;;;;;;13.45;7.15;;;;;;;0.43;63.02;101022.52;1796288;77;21770;-60
2022/11/20 04:26:17;;;;;;;13.13;7.42;;;;;;;0.45;63.11;101019.43;1796718;79;21090;-60
2022/11/20 04:28:44;;;;;;;11.83;5.78;;;;;;;0.47;63.04;101020.27;1797593;79;21042;-61
2022/11/20 04:31:18;;;;;;;15.05;6.40;;;;;;;0.51;63.01;101024.45;1793634;79;21008;-61
2022/11/20 04:33:45;;;;;;;14.20;6.58;;;;;;;0.52;63.00;101017.52;1787165;79;21016;-60
2022/11/20 04:36:15;;;;;;;14.90;7.47;;;;;;;0.54;62.84;101015.77;1786117;79;21216;-60
2022/11/20 04:38:41;;;;;;;11.68;7.15;;;;;;;0.54;62.89;101017.89;1787862;79;21086;-61
2022/11/20 04:41:18;;;;;;;12.23;6.75;;;;;;;0.57;62.87;101017.40;1789741;79;21018;-61
2022/11/20 04:43:49;;;;;;;21.30;9.10;;;;;;;0.61;62.77;100998.30;1787570;79;21054;-59
2022/11/20 04:46:17;;;;;;;13.25;7.30;;;;;;;0.59;62.50;100987.98;1788644;79;21039;-60
2022/11/20 04:48:44;;;;;;;13.75;6.72;;;;;;;0.59;62.38;100981.94;1729470;80;21095;-60
2022/11/20 04:51:11;;;;;;;14.83;6.83;;;;;;;0.59;62.46;100983.23;1784772;79;21051;-60
2022/11/20 04:53:39;;;;;;;15.08;7.55;;;;;;;0.62;62.54;100980.56;1799907;79;21036;-59
2022/11/20 04:56:08;;;;;;;14.38;6.95;;;;;;;0.60;62.69;100967.66;1788893;79;21531;-60
2022/11/20 04:58:35;;;;;;;11.97;6.42;;;;;;;0.63;62.57;100961.55;1789352;79;21062;-60
2022/11/20 05:01:07;;;;;;;10.00;5.22;;;;;;;0.61;62.78;100959.45;1800452;79;21372;-60
2022/11/20 05:03:35;;;;;;;13.28;5.72;;;;;;;0.60;62.96;100951.27;1799296;79;21492;-60
2022/11/20 05:06:04;;;;;;;13.38;6.67;;;;;;;0.60;63.13;100946.09;1803452;78;21030;-61
2022/11/20 05:08:31;;;;;;;15.18;5.95;;;;;;;0.63;63.13;100947.30;1797618;79;21028;-61
2022/11/20 05:11:02;;;;;;;13.40;6.12;;;;;;;0.76;62.99;100942.16;1801674;79;21460;-60
2022/11/20 05:13:29;;;;;;;13.15;6.78;;;;;;;0.79;62.98;100943.79;1791808;79;21209;-60
2022/11/20 05:16:10;;;;;;;11.95;6.30;;;;;;;0.69;63.14;100951.85;1787774;77;20984;-60
2022/11/20 05:18:38;;;;;;;18.35;8.38;;;;;;;0.66;63.29;100952.40;1777529;79;21011;-60
2022/11/20 05:21:07;;;;;;;14.83;6.62;;;;;;;0.64;63.44;100948.55;1787636;78;21094;-60
2022/11/20 05:23:34;;;;;;;13.62;7.35;;;;;;;0.65;63.78;100957.16;1787291;79;22167;-60
2022/11/20 05:26:01;;;;;;;12.20;5.90;;;;;;;0.65;63.88;100968.81;1783401;79;21133;-61
2022/11/20 05:28:29;;;;;;;14.10;7.22;;;;;;;0.61;63.99;100965.93;1786344;79;21114;-60
2022/11/20 05:31:07;;;;;;;13.38;5.90;;;;;;;0.58;64.05;100966.02;1790912;78;21079;-60
2022/11/20 05:33:35;;;;;;;13.62;6.58;;;;;;;0.55;64.24;100970.40;1781348;79;21121;-61
2022/11/20 05:36:05;;;;;;;14.38;6.33;;;;;;;0.57;64.42;100952.66;1791737;79;21067;-60
2022/11/20 05:38:31;;;;;;;12.15;6.28;;;;;;;0.66;64.51;100932.52;1782323;79;21827;-61
2022/11/20 05:41:14;;;;;;;11.83;5.85;;;;;;;0.73;64.31;100934.02;1786742;79;21059;-60
2022/11/20 05:43:43;;;;;;;12.98;7.08;;;;;;;0.66;64.76;100945.92;1789188;79;20988;-60
2022/11/20 05:46:12;;;;;;;15.75;7.20;;;;;;;0.79;64.46;100951.56;1783729;79;21068;-60
2022/11/20 05:48:40;;;;;;;14.38;8.15;;;;;;;0.83;64.39;100942.36;1788470;78;21520;-60
2022/11/20 05:51:10;;;;;;;14.07;6.87;;;;;;;0.87;64.41;100950.42;1792356;78;22194;-60
2022/11/20 05:53:36;;;;;;;14.47;8.05;;;;;;;0.93;64.32;100941.19;1797261;78;21106;-60
2022/11/20 05:56:14;;;;;;;12.65;6.87;;;;;;;0.97;64.15;100942.39;1728167;81;21049;-60
2022/11/20 05:58:42;;;;;;;17.07;7.90;;;;;;;1.00;64.06;100939.70;1793791;79;21476;-60
2022/11/20 06:01:21;;;;;;;14.07;7.60;;;;;;;1.01;64.08;100948.73;1783843;78;21513;-60
2022/11/20 06:03:50;;;;;;;14.85;8.08;;;;;;;1.08;64.07;100948.09;1799212;78;21218;-60
2022/11/20 06:06:18;;;;;;;13.15;6.08;;;;;;;1.11;64.05;100953.19;1788882;78;21023;-60
2022/11/20 06:08:46;;;;;;;17.23;7.15;;;;;;;1.14;63.97;100954.35;1794203;78;21052;-60
2022/11/20 06:11:13;;;;;;;17.15;8.08;;;;;;;1.17;63.89;100959.91;1788654;79;21364;-60
2022/11/20 06:13:40;;;;;;;10.88;6.70;;;;;;;1.18;63.97;100944.30;1781657;79;21075;-60
2022/11/20 06:16:10;;;;;;;14.50;6.67;;;;;;;1.10;64.18;100954.91;1782267;79;21009;-59
2022/11/20 06:18:37;;;;;;;13.58;6.25;;;;;;;1.10;64.30;100960.09;1794392;78;20972;-60
2022/11/20 06:21:12;;;;;;;11.88;6.15;;;;;;;1.14;64.34;100962.13;1791072;78;21027;-60
2022/11/20 06:23:39;;;;;;;13.00;6.55;;;;;;;1.22;64.14;100960.14;1790595;79;21062;-60
2022/11/20 06:26:13;;;;;;;15.78;7.95;;;;;;;1.31;64.24;100961.59;1790505;79;21573;-60
2022/11/20 06:28:40;;;;;;;12.93;6.85;;;;;;;1.38;64.20;100960.95;1793401;79;21199;-59
2022/11/20 06:31:11;;;;;;;12.93;6.40;;;;;;;1.45;64.03;100958.57;1790052;79;20997;-60
2022/11/20 06:33:40;;;;;;;14.55;7.60;;;;;;;1.46;63.75;100960.25;1790839;79;21023;-60
2022/11/20 06:36:07;;;;;;;20.27;6.92;;;;;;;1.47;63.63;100951.13;1791702;78;21066;-60
2022/11/20 06:38:34;;;;;;;13.20;8.00;;;;;;;1.49;63.65;100948.02;1791699;78;20967;-60
2022/11/20 06:41:01;;;;;;;11.00;6.25;;;;;;;1.54;63.55;100953.52;1792272;78;21143;-60
2022/11/20 06:43:28;;;;;;;15.23;7.08;;;;;;;1.57;63.42;100956.86;1728476;80;20954;-60
2022/11/20 06:45:57;;;;;;;11.63;6.08;;;;;;;1.58;63.38;100957.27;1790938;79;20961;-60
2022/11/20 06:48:24;;;;;;;13.45;6.53;;;;;;;1.57;63.24;100945.19;1794015;79;20968;-60
2022/11/20 06:50:50;;;;;;;12.30;6.58;;;;;;;1.60;63.16;100946.84;1789723;79;21015;-61
2022/11/20 06:53:17;;;;;;;14.23;7.60;;;;;;;1.51;63.29;100948.43;1788215;79;21180;-60
2022/11/20 06:55:46;;;;;;;14.70;8.08;;;;;;;1.61;63.04;100941.58;1786583;79;21020;-60
2022/11/20 06:58:15;;;;;;;13.48;7.03;;;;;;;1.65;62.90;100945.78;1787471;79;22014;-60
2022/11/20 07:00:41;;;;;;;12.35;7.33;;;;;;;1.73;62.74;100948.55;1783908;79;21090;-60
2022/11/20 07:03:10;;;;;;;13.38;7.03;;;;;;;1.76;62.57;100942.80;1781363;79;21138;-60
2022/11/20 07:05:38;;;;;;;14.23;6.55;;;;;;;1.81;62.39;100947.38;1789485;79;21908;-60
2022/11/20 07:08:05;;;;;;;12.85;6.75;;;;;;;1.80;62.19;100931.44;1782812;79;21031;-59
2022/11/20 07:10:32;;;;;;;13.25;7.28;;;;;;;1.81;61.90;100937.00;1793777;79;21021;-59
2022/11/20 07:12:59;;;;;;;11.30;6.05;;;;;;;1.80;61.94;100938.35;1785893;79;21082;-61
2022/11/20 07:15:26;;;;;;;12.43;6.50;;;;;;;1.83;61.80;100930.03;1784005;79;21071;-61
2022/11/20 07:17:52;;;;;;;14.30;6.97;;;;;;;1.84;61.78;100923.09;1785519;79;21192;-60
2022/11/20 07:20:20;;;;;;;14.63;6.72;;;;;;;1.90;61.53;100922.02;1790723;79;21598;-60
2022/11/20 07:22:47;;;;;;;14.87;7.17;;;;;;;1.91;61.54;100911.58;1787898;79;21684;-63
2022/11/20 07:25:14;;;;;;;11.83;6.42;;;;;;;1.97;61.38;100909.23;1760562;79;21075;-62
2022/11/20 07:27:41;;;;;;;13.13;6.65;;;;;;;1.99;61.20;100913.45;1785079;79;21801;-62
2022/11/20 07:31:17;;;;;;;11.30;6.83;;;;;;;1.89;61.27;100908.20;1808405;78;22540;-57
2022/11/20 07:33:45;;;;;;;15.80;7.08;;;;;;;1.98;60.69;100921.30;1711054;81;21561;-57
2022/11/20 07:36:11;;;;;;;9.78;4.80;;;;;;;2.06;60.60;100924.92;1726359;81;21243;-58
2022/11/20 07:38:39;;;;;;;16.15;12.40;;;;;;;2.08;60.32;100920.52;1716002;81;21086;-56
2022/11/20 07:41:05;;;;;;;13.80;6.62;;;;;;;2.11;60.18;100906.97;1740200;80;21589;-57
2022/11/20 07:43:32;;;;;;;13.20;7.70;;;;;;;2.14;60.22;100903.44;1712764;82;21125;-57
2022/11/20 07:45:59;;;;;;;12.73;7.05;;;;;;;2.20;60.06;100905.78;1746588;80;21051;-57
2022/11/20 07:48:26;;;;;;;16.57;7.33;;;;;;;2.21;59.97;100904.43;1726170;81;21196;-58
2022/11/20 07:50:57;;;;;;;15.70;7.10;;;;;;;2.20;59.87;100899.30;1732302;80;21024;-58
2022/11/20 07:53:24;;;;;;;13.50;7.37;;;;;;;2.19;59.90;100908.00;1732033;80;21185;-58
2022/11/20 07:55:53;;;;;;;14.25;6.90;;;;;;;2.16;60.07;100909.41;1733774;81;21085;-58
2022/11/20 07:58:21;;;;;;;10.23;6.42;;;;;;;2.16;60.28;100903.76;1731281;81;21057;-58
2022/11/20 08:00:47;;;;;;;12.15;6.78;;;;;;;2.29;60.04;100895.53;1732667;80;21230;-58
2022/11/20 08:03:14;;;;;;;14.25;7.85;;;;;;;2.31;59.89;100895.86;1732148;80;21185;-57
2022/11/20 08:05:40;;;;;;;11.05;6.45;;;;;;;2.36;59.80;100903.02;1750358;80;21085;-57
2022/11/20 08:08:08;;;;;;;14.15;7.62;;;;;;;2.36;59.77;100895.69;1729471;81;21046;-57
2022/11/20 08:10:34;;;;;;;13.00;7.17;;;;;;;2.38;59.76;100902.97;1729075;81;21121;-58
2022/11/20 08:15:50;;;;;;;13.75;7.30;;;;;;;2.40;59.94;100912.84;1727701;81;21093;-58
2022/11/20 08:18:17;;;;;;;13.98;7.53;;;;;;;2.43;59.86;100908.00;1726812;81;21110;-58
2022/11/20 08:20:45;;;;;;;11.50;6.25;;;;;;;2.48;59.75;100899.58;1719088;81;21172;-57
2022/11/20 08:23:12;;;;;;;12.53;6.25;;;;;;;2.52;59.73;100903.73;1716722;82;21579;-57
2022/11/20 08:25:39;;;;;;;11.65;6.30;;;;;;;2.46;59.67;100898.33;1724100;81;21585;-57
2022/11/20 08:28:08;;;;;;;13.55;7.03;;;;;;;2.35;60.00;100892.22;1718263;81;21073;-58
2022/11/20 08:30:35;;;;;;;13.30;6.72;;;;;;;2.33;60.16;100886.70;1707767;82;21133;-58
2022/11/20 08:33:05;;;;;;;15.32;7.58;;;;;;;2.28;60.37;100879.09;1697614;82;21066;-58
2022/11/20 08:35:36;;;;;;;13.43;7.22;;;;;;;2.26;60.57;100867.91;1687641;83;21110;-57
2022/11/20 08:38:05;;;;;;;10.88;6.75;;;;;;;2.24;60.79;100858.05;1704378;82;21128;-58
2022/11/20 08:40:32;;;;;;;14.50;7.72;;;;;;;2.26;60.93;100860.59;1704095;82;21122;-57
2022/11/20 08:43:00;;;;;;;13.55;6.97;;;;;;;2.21;61.19;100855.56;1701546;82;21023;-57
2022/11/20 08:45:27;;;;;;;14.63;7.33;;;;;;;2.18;61.27;100856.50;1706087;82;21077;-57
2022/11/20 08:47:56;;;;;;;15.15;7.62;;;;;;;2.13;61.40;100857.13;1750225;79;21063;-57
2022/11/20 08:50:22;;;;;;;11.80;6.35;;;;;;;2.11;61.60;100855.52;1748325;79;21320;-57
2022/11/20 08:52:50;;;;;;;12.10;6.05;;;;;;;2.09;61.85;100858.62;1759039;79;21651;-57
2022/11/20 08:55:16;;;;;;;13.75;7.58;;;;;;;2.11;62.02;100855.52;1758824;80;21606;-58
2022/11/20 08:57:44;;;;;;;11.80;5.90;;;;;;;2.22;61.70;100852.91;1741550;80;21114;-57
2022/11/20 09:00:13;;;;;;;12.28;6.65;;;;;;;2.25;61.66;100846.73;1750039;80;21073;-59
2022/11/20 09:02:41;;;;;;;11.48;6.60;;;;;;;2.26;61.67;100850.20;1748254;80;22556;-60
2022/11/20 09:05:09;;;;;;;10.78;6.10;;;;;;;2.30;61.49;100852.59;1748000;80;21855;-59
2022/11/20 09:07:36;;;;;;;14.25;6.70;;;;;;;2.30;61.48;100844.81;1754149;79;21127;-59
2022/11/20 09:10:03;;;;;;;13.05;6.33;;;;;;;2.34;61.44;100841.67;1754580;81;21054;-59
2022/11/20 09:12:33;;;;;;;11.85;7.20;;;;;;;2.34;61.45;100841.67;1751300;79;21046;-59
2022/11/20 09:14:59;;;;;;;11.95;6.05;;;;;;;2.37;61.43;100837.63;1729052;80;21249;-59
2022/11/20 09:17:25;;;;;;;13.78;6.30;;;;;;;2.40;61.49;100847.47;1751213;79;21059;-59
2022/11/20 09:19:52;;;;;;;11.15;7.03;;;;;;;2.41;61.32;100845.25;1749807;79;21077;-58
2022/11/20 09:22:20;;;;;;;14.38;6.95;;;;;;;2.41;61.23;100850.91;1744504;80;21054;-58
2022/11/20 09:24:47;;;;;;;15.03;6.50;;;;;;;2.41;60.97;100850.45;1765525;79;21079;-58
2022/11/20 09:27:13;;;;;;;14.33;7.55;;;;;;;2.39;61.08;100846.23;1751228;79;21213;-57
2022/11/20 09:29:41;;;;;;;12.73;6.20;;;;;;;2.43;61.14;100843.06;1755635;80;21098;-57
2022/11/20 09:32:07;;;;;;;11.55;5.15;;;;;;;2.43;61.34;100836.10;1766937;80;20996;-59
2022/11/20 09:34:35;;;;;;;14.07;7.08;;;;;;;2.47;61.33;100827.30;1755211;80;21070;-58
2022/11/20 09:37:03;;;;;;;12.18;6.58;;;;;;;2.49;61.33;100825.91;1761987;80;21145;-58
2022/11/20 09:39:30;;;;;;;11.28;6.17;;;;;;;2.50;61.46;100822.42;1762177;79;21188;-59
2022/11/20 09:42:26;;;;;;;12.10;7.08;;;;;;;2.52;61.40;100816.70;1757516;79;21110;-58
2022/11/20 09:45:25;;;;;;;14.55;6.60;;;;;;;2.53;61.30;100819.25;1689390;82;21069;-57
2022/11/20 09:48:15;;;;;;;11.22;6.50;;;;;;;2.59;61.48;100820.78;1758584;79;21102;-56
2022/11/20 09:51:03;;;;;;;13.00;6.25;;;;;;;2.63;61.39;100808.04;1764529;79;21066;-59
2022/11/20 09:54:00;;;;;;;11.12;6.47;;;;;;;2.65;61.39;100801.48;1755394;79;21155;-60
2022/11/20 09:56:27;;;;;;;14.18;7.08;;;;;;;2.63;61.56;100799.41;1763316;80;25995;-59
2022/11/20 09:58:55;;;;;;;15.20;7.10;;;;;;;2.64;61.73;100792.86;1738384;79;21484;-58
2022/11/20 10:01:30;;;;;;;12.60;6.25;;;;;;;2.69;61.84;100787.45;1714845;80;21656;-58
2022/11/20 10:04:13;;;;;;;14.68;7.50;;;;;;;2.68;62.01;100784.48;1760893;79;21039;-58
2022/11/20 10:06:44;;;;;;;11.12;5.67;;;;;;;2.63;62.01;100782.06;1755766;79;22056;-58
2022/11/20 10:09:26;;;;;;;10.25;6.08;;;;;;;2.63;62.17;100776.86;1761276;79;21062;-59
2022/11/20 10:12:11;;;;;;;11.95;6.87;;;;;;;2.64;62.30;100780.30;1754236;79;21479;-59
2022/11/20 10:15:08;;;;;;;12.63;6.87;;;;;;;2.59;62.41;100778.74;1750719;80;21062;-59
2022/11/20 10:18:06;;;;;;;11.73;5.77;;;;;;;2.59;62.57;100762.32;1753186;79;21106;-58
2022/11/20 10:20:59;;;;;;;14.03;7.53;;;;;;;2.54;62.77;100766.39;1755626;79;22280;-59
2022/11/20 10:23:49;;;;;;;14.45;5.97;;;;;;;2.54;63.02;100763.80;1751537;79;21110;-59
2022/11/20 10:26:40;;;;;;;16.23;7.90;;;;;;;2.54;63.03;100763.80;1751095;79;22587;-57
2022/11/20 10:29:17;;;;;;;13.50;7.08;;;;;;;2.53;63.18;100762.56;1754628;80;21608;-60
2022/11/20 10:31:58;;;;;;;12.23;7.47;;;;;;;2.52;63.31;100754.36;1755377;79;21301;-58
2022/11/20 10:34:39;;;;;;;13.40;8.00;;;;;;;2.51;63.28;100753.98;1767005;79;21094;-60
2022/11/20 10:37:19;;;;;;;14.53;6.87;;;;;;;2.50;63.57;100746.63;1770944;80;21478;-60
2022/11/20 10:40:04;;;;;;;12.40;7.33;;;;;;;2.51;63.63;100736.64;1766001;79;21074;-57
2022/11/20 10:42:36;;;;;;;12.65;6.97;;;;;;;2.50;63.70;100722.41;1764886;80;22396;-58
2022/11/20 10:45:17;;;;;;;13.13;7.78;;;;;;;2.51;63.75;100721.05;1757030;80;21066;-59
2022/11/20 10:47:44;;;;;;;14.03;7.87;;;;;;;2.50;63.88;100721.95;1761951;79;21848;-58
2022/11/20 10:50:15;;;;;;;15.65;8.33;;;;;;;2.44;64.18;100720.92;1765190;80;21533;-59
2022/11/20 10:52:51;;;;;;;14.35;7.65;;;;;;;2.46;64.33;100720.40;1756138;80;21113;-60
2022/11/20 10:55:42;;;;;;;13.80;7.80;;;;;;;2.49;64.34;100721.58;1765208;80;21423;-59
2022/11/20 10:58:31;;;;;;;15.30;8.23;;;;;;;2.50;64.33;100731.50;1762990;80;21061;-59
2022/11/20 11:01:16;;;;;;;12.33;7.05;;;;;;;2.49;64.33;100735.00;1765456;80;21334;-59
2022/11/20 11:03:45;;;;;;;16.65;8.28;;;;;;;2.49;64.31;100727.20;1765799;79;21039;-58
2022/11/20 11:06:40;;;;;;;15.05;8.83;;;;;;;2.53;64.17;100722.30;1762261;80;21003;-58
2022/11/20 11:09:15;;;;;;;13.45;7.50;;;;;;;2.49;63.97;100718.11;1760038;79;21067;-57
2022/11/20 11:11:42;;;;;;;14.63;7.75;;;;;;;2.47;63.99;100719.50;1763811;79;21003;-58
2022/11/20 11:14:14;;;;;;;12.15;8.28;;;;;;;2.44;64.23;100715.73;1758449;79;21223;-59
2022/11/20 11:16:56;;;;;;;13.93;7.75;;;;;;;2.43;64.09;100729.61;1765273;79;21086;-59
2022/11/20 11:19:24;;;;;;;13.78;8.03;;;;;;;2.33;64.37;100714.84;1770823;80;21683;-59
2022/11/20 11:21:54;;;;;;;15.10;7.62;;;;;;;2.27;64.65;100709.05;1767585;79;21046;-58
2022/11/20 11:24:25;;;;;;;12.85;7.65;;;;;;;2.28;64.73;100703.80;1773064;80;21038;-58
2022/11/20 11:27:04;;;;;;;13.05;5.60;;;;;;;2.31;64.91;100711.47;1764895;80;21812;-59
2022/11/20 11:29:31;;;;;;;11.85;7.30;;;;;;;2.26;64.74;100704.33;1765181;79;21501;-57
2022/11/20 11:32:14;;;;;;;14.38;7.03;;;;;;;2.21;64.94;100689.39;1757247;80;21546;-56
2022/11/20 11:34:41;;;;;;;16.42;7.25;;;;;;;2.20;65.14;100679.47;1755472;79;21046;-55
2022/11/20 11:37:17;;;;;;;12.98;7.22;;;;;;;2.23;65.32;100675.42;1759849;79;21150;-55
2022/11/20 11:39:44;;;;;;;10.58;6.95;;;;;;;2.22;65.27;100669.85;1758593;79;21194;-56
2022/11/20 11:42:17;;;;;;;10.93;5.95;;;;;;;2.25;65.37;100670.17;1740988;80;21146;-56
2022/11/20 11:47:35;;;;;;;10.45;6.00;;;;;;;2.21;65.52;100647.84;1753221;79;21130;-56